createdAt,value
2023-04-15T00:02:00.947Z,7.00
2023-04-15T00:04:28.817Z,7.07
2023-04-15T00:06:56.638Z,7.04
2023-04-15T00:09:24.203Z,7.00
2023-04-15T00:11:51.682Z,7.01
2023-04-15T00:14:18.847Z,6.98
2023-04-15T00:16:46.574Z,7.00
2023-04-15T00:19:13.765Z,7.03
2023-04-15T00:21:41.507Z,6.97
2023-04-15T00:24:08.724Z,6.93
2023-04-15T00:26:36.354Z,6.96
2023-04-15T00:29:03.610Z,6.85
2023-04-15T00:31:32.051Z,6.96
2023-04-15T00:33:59.900Z,6.97
2023-04-15T00:36:27.859Z,6.83
2023-04-15T00:38:55.075Z,6.93
2023-04-15T00:41:23.264Z,6.84
2023-04-15T00:43:53.170Z,6.91
2023-04-15T00:46:22.190Z,6.90
2023-04-15T00:48:50.712Z,6.88
2023-04-15T00:51:18.188Z,6.82
2023-04-15T00:53:45.390Z,6.73
2023-04-15T00:56:14.233Z,6.72
2023-04-15T00:58:42.235Z,6.68
2023-04-15T01:01:10.380Z,6.60
2023-04-15T01:03:37.982Z,6.65
2023-04-15T01:06:05.880Z,6.57
2023-04-15T01:08:33.284Z,6.49
2023-04-15T01:11:03.846Z,6.49
2023-04-15T01:13:31.591Z,6.43
2023-04-15T01:15:59.308Z,6.48
2023-04-15T01:18:27.454Z,6.34
2023-04-15T01:20:55.119Z,6.36
2023-04-15T01:23:24.699Z,6.40
2023-04-15T01:25:53.673Z,6.47
2023-04-15T01:28:21.532Z,6.29
2023-04-15T01:30:49.377Z,6.38
2023-04-15T01:33:17.047Z,6.31
2023-04-15T01:35:47.394Z,6.33
2023-04-15T01:38:15.626Z,6.32
2023-04-15T01:40:45.122Z,6.26
2023-04-15T01:43:15.613Z,6.12
2023-04-15T01:45:43.413Z,6.14
2023-04-15T01:48:10.726Z,6.18
2023-04-15T01:50:38.838Z,6.02
2023-04-15T01:53:06.148Z,5.96
2023-04-15T01:55:33.682Z,5.86
2023-04-15T01:58:01.487Z,5.83
2023-04-15T02:00:29.287Z,5.85
2023-04-15T02:02:56.634Z,5.82
2023-04-15T02:05:26.649Z,5.75
2023-04-15T02:07:54.021Z,5.76
2023-04-15T02:10:21.950Z,5.54
2023-04-15T02:12:49.275Z,5.47
2023-04-15T02:15:16.898Z,5.54
2023-04-15T02:17:46.162Z,5.48
2023-04-15T02:20:16.035Z,5.50
2023-04-15T02:22:43.320Z,5.46
2023-04-15T02:25:11.251Z,5.42
2023-04-15T02:27:38.643Z,5.40
2023-04-15T02:30:07.621Z,5.43
2023-04-15T02:32:35.702Z,5.34
2023-04-15T02:35:07.978Z,5.47
2023-04-15T02:37:41.787Z,5.50
2023-04-15T02:40:14.138Z,5.47
2023-04-15T02:42:42.096Z,5.37
2023-04-15T02:45:13.197Z,5.43
2023-04-15T02:47:41.879Z,5.47
2023-04-15T02:50:12.882Z,5.51
2023-04-15T02:52:42.856Z,5.46
2023-04-15T02:55:10.898Z,5.33
2023-04-15T02:57:39.402Z,5.39
2023-04-15T03:00:11.782Z,5.37
2023-04-15T03:02:43.236Z,5.35
2023-04-15T03:05:15.195Z,5.44
2023-04-15T03:07:52.270Z,5.39
2023-04-15T03:10:20.980Z,5.35
2023-04-15T03:12:48.644Z,5.25
2023-04-15T03:15:21.663Z,5.16
2023-04-15T03:17:52.107Z,5.15
2023-04-15T03:20:19.959Z,5.14
2023-04-15T03:22:48.613Z,5.19
2023-04-15T03:25:16.590Z,5.23
2023-04-15T03:27:44.553Z,5.25
2023-04-15T03:30:13.548Z,5.24
2023-04-15T03:32:41.564Z,5.23
2023-04-15T03:35:09.900Z,5.12
2023-04-15T03:37:37.110Z,5.12
2023-04-15T03:40:07.158Z,5.19
2023-04-15T03:42:34.354Z,5.08
2023-04-15T03:45:02.166Z,5.07
2023-04-15T03:47:29.424Z,5.01
2023-04-15T03:49:56.926Z,5.01
2023-04-15T03:52:24.200Z,5.02
2023-04-15T03:54:51.775Z,4.88
2023-04-15T03:57:18.936Z,4.96
2023-04-15T03:59:49.721Z,5.03
2023-04-15T04:02:17.515Z,4.97
2023-04-15T04:04:47.486Z,4.93
2023-04-15T04:07:18.919Z,4.90
2023-04-15T04:09:47.656Z,4.70
2023-04-15T04:12:22.172Z,4.75
2023-04-15T04:14:49.834Z,4.65
2023-04-15T04:17:17.080Z,4.60
2023-04-15T04:19:44.637Z,4.60
2023-04-15T04:22:12.318Z,4.61
2023-04-15T04:24:42.558Z,4.58
2023-04-15T04:27:09.799Z,4.55
2023-04-15T04:29:38.599Z,4.48
2023-04-15T04:32:06.148Z,4.54
2023-04-15T04:34:33.712Z,4.48
2023-04-15T04:37:00.934Z,4.53
2023-04-15T04:39:28.385Z,4.53
2023-04-15T04:41:57.458Z,4.47
2023-04-15T04:44:25.410Z,4.43
2023-04-15T04:46:53.702Z,4.56
2023-04-15T04:49:21.354Z,4.54
2023-04-15T04:51:52.608Z,4.52
2023-04-15T04:57:15.346Z,4.50
2023-04-15T04:59:46.809Z,4.56
2023-04-15T05:02:15.793Z,4.51
2023-04-15T05:04:43.379Z,4.55
2023-04-15T05:07:13.043Z,4.56
2023-04-15T05:09:43.591Z,4.61
2023-04-15T05:12:15.165Z,4.68
2023-04-15T05:14:44.647Z,4.76
2023-04-15T05:17:12.649Z,4.70
2023-04-15T05:19:45.749Z,4.87
2023-04-15T05:22:13.299Z,4.89
2023-04-15T05:24:43.514Z,4.97
2023-04-15T05:27:12.060Z,5.05
2023-04-15T05:29:39.670Z,5.21
2023-04-15T05:32:07.250Z,5.29
2023-04-15T05:34:34.728Z,5.41
2023-04-15T05:37:03.063Z,5.53
2023-04-15T05:39:34.899Z,5.56
2023-04-15T05:42:07.127Z,5.73
2023-04-15T05:44:35.608Z,5.85
2023-04-15T05:47:08.858Z,6.03
2023-04-15T05:49:37.008Z,6.22
2023-04-15T05:52:07.949Z,6.32
2023-04-15T05:54:38.935Z,6.49
2023-04-15T05:57:06.416Z,6.64
2023-04-15T05:59:33.945Z,6.68
2023-04-15T06:02:01.435Z,6.91
2023-04-15T06:04:29.150Z,7.05
2023-04-15T06:06:59.247Z,7.14
2023-04-15T06:09:27.287Z,7.28
2023-04-15T06:11:54.977Z,7.43
2023-04-15T06:14:23.564Z,7.46
2023-04-15T06:16:52.581Z,7.51
2023-04-15T06:19:20.639Z,7.59
2023-04-15T06:21:50.086Z,7.92
2023-04-15T06:24:18.851Z,8.00
2023-04-15T06:26:49.069Z,8.13
2023-04-15T06:29:20.352Z,8.24
2023-04-15T06:31:49.646Z,8.33
2023-04-15T06:34:17.257Z,8.40
2023-04-15T06:36:44.517Z,8.53
2023-04-15T06:39:12.575Z,8.70
2023-04-15T06:41:40.467Z,8.69
2023-04-15T06:44:08.095Z,8.54
2023-04-15T06:46:35.816Z,8.64
2023-04-15T06:49:04.069Z,8.65
2023-04-15T06:51:32.166Z,8.55
2023-04-15T06:54:00.702Z,8.61
2023-04-15T06:56:28.351Z,8.78
2023-04-15T06:58:58.123Z,8.90
2023-04-15T07:01:25.582Z,9.01
2023-04-15T07:03:53.798Z,9.14
2023-04-15T07:06:22.558Z,9.34
2023-04-15T07:08:52.283Z,9.46
2023-04-15T07:11:21.311Z,9.75
2023-04-15T07:13:50.236Z,9.87
2023-04-15T07:16:22.803Z,10.00
2023-04-15T07:18:51.274Z,9.94
2023-04-15T07:21:18.641Z,10.09
2023-04-15T07:23:46.837Z,10.39
2023-04-15T07:26:15.949Z,10.60
2023-04-15T07:28:49.835Z,10.80
2023-04-15T07:31:20.196Z,10.89
2023-04-15T07:33:48.228Z,10.84
2023-04-15T07:36:15.639Z,11.02
2023-04-15T07:38:43.380Z,11.23
2023-04-15T07:41:10.857Z,11.29
2023-04-15T07:43:38.715Z,11.52
2023-04-15T07:46:06.138Z,11.88
2023-04-15T07:48:34.938Z,12.23
2023-04-15T07:51:03.801Z,12.51
2023-04-15T07:53:31.555Z,12.63
2023-04-15T07:55:59.247Z,12.75
2023-04-15T10:34:31.524Z,16.73
2023-04-15T10:37:03.863Z,16.54
2023-04-15T10:39:37.603Z,16.89
2023-04-15T10:42:09.703Z,17.43
2023-04-15T10:44:43.250Z,17.56
2023-04-15T10:47:16.117Z,17.25
2023-04-15T10:49:47.009Z,17.14
2023-04-15T10:52:16.819Z,17.32
2023-04-15T10:54:46.998Z,17.75
2023-04-15T10:57:22.049Z,17.88
2023-04-15T10:59:58.937Z,18.70
2023-04-15T11:03:05.806Z,19.23
2023-04-15T11:05:42.187Z,19.01
2023-04-15T11:08:16.808Z,19.25
2023-04-15T11:10:44.134Z,19.88
2023-04-15T11:13:11.658Z,20.51
2023-04-15T11:15:45.131Z,20.89
2023-04-15T11:18:23.791Z,20.54
2023-04-15T11:20:59.629Z,20.07
2023-04-15T11:23:48.889Z,19.22
2023-04-15T11:26:16.471Z,17.88
2023-04-15T11:28:45.765Z,16.83
2023-04-15T11:31:14.693Z,16.03
2023-04-15T11:34:00.335Z,15.25
2023-04-15T11:36:32.343Z,14.81
2023-04-15T11:39:00.687Z,14.32
2023-04-15T11:41:28.869Z,14.21
2023-04-15T11:43:56.585Z,13.99
2023-04-15T11:46:30.993Z,14.41
2023-04-15T11:48:58.652Z,15.19
2023-04-15T11:51:26.248Z,16.34
2023-04-15T11:53:55.658Z,17.55
2023-04-15T11:56:26.811Z,18.38
2023-04-15T11:58:59.646Z,18.74
2023-04-15T12:01:40.037Z,18.65
2023-04-15T12:04:17.807Z,18.22
2023-04-15T12:06:45.956Z,19.08
2023-04-15T12:09:15.548Z,20.11
2023-04-15T12:11:50.322Z,21.55
2023-04-15T12:14:28.671Z,22.07
2023-04-15T12:17:00.572Z,21.87
2023-04-15T12:19:38.929Z,22.42
2023-04-15T12:22:10.594Z,23.76
2023-04-15T12:24:39.578Z,24.69
2023-04-15T12:27:14.655Z,25.12
2023-04-15T12:29:43.355Z,25.27
2023-04-15T12:32:13.615Z,25.75
2023-04-15T12:34:50.026Z,25.90
2023-04-15T12:37:17.907Z,26.16
2023-04-15T12:39:49.174Z,26.53
2023-04-15T12:42:17.703Z,26.72
2023-04-15T12:44:45.630Z,26.95
2023-04-15T12:47:13.593Z,27.27
2023-04-15T12:49:41.517Z,26.79
2023-04-15T12:52:09.181Z,26.05
2023-04-15T12:54:36.778Z,24.35
2023-04-15T12:57:06.877Z,22.80
2023-04-15T12:59:35.816Z,22.25
2023-04-15T13:02:04.096Z,21.44
2023-04-15T13:04:32.209Z,20.91
2023-04-15T13:06:59.743Z,19.98
2023-04-15T13:09:27.312Z,18.98
2023-04-15T13:11:54.781Z,18.53
2023-04-15T13:14:22.563Z,18.03
2023-04-15T13:16:49.863Z,18.29
2023-04-15T13:19:17.409Z,18.75
2023-04-15T13:21:44.704Z,19.11
2023-04-15T13:24:12.266Z,19.14
2023-04-15T13:26:39.543Z,18.92
2023-04-15T13:29:07.462Z,19.01
2023-04-15T13:31:34.824Z,18.74
2023-04-15T13:38:44.745Z,16.36
2023-04-15T13:41:12.311Z,15.47
2023-04-15T13:43:39.532Z,14.73
2023-04-15T13:46:07.198Z,14.30
2023-04-15T13:48:34.464Z,13.81
2023-04-15T13:51:01.954Z,13.62
2023-04-15T13:53:38.530Z,13.32
2023-04-15T13:56:08.565Z,13.07
2023-04-15T13:58:37.005Z,12.71
2023-04-15T14:01:06.230Z,12.63
2023-04-15T14:03:36.232Z,12.71
2023-04-15T14:06:05.490Z,12.62
2023-04-15T14:08:32.928Z,12.67
2023-04-15T14:11:00.763Z,12.79
2023-04-15T14:13:28.336Z,12.83
2023-04-15T14:15:57.407Z,12.85
2023-04-15T14:18:24.685Z,12.86
2023-04-15T14:20:52.237Z,12.81
2023-04-15T14:23:19.807Z,12.69
2023-04-15T14:25:48.308Z,12.76
2023-04-15T14:28:16.020Z,12.90
2023-04-15T14:30:44.027Z,12.99
2023-04-15T14:33:11.450Z,13.02
2023-04-15T14:35:39.279Z,13.10
2023-04-15T14:38:11.025Z,13.31
2023-04-15T14:40:39.047Z,13.53
2023-04-15T14:43:06.217Z,14.68
2023-04-15T14:45:34.110Z,15.98
2023-04-15T14:48:01.705Z,17.22
2023-04-15T14:50:29.486Z,18.65
2023-04-15T14:52:59.508Z,19.75
2023-04-15T14:55:27.118Z,20.90
2023-04-15T14:57:55.240Z,21.79
2023-04-15T15:00:22.967Z,23.05
2023-04-15T15:02:52.321Z,24.04
2023-04-15T15:05:20.211Z,23.07
2023-04-15T15:07:48.016Z,22.60
2023-04-15T15:10:15.714Z,21.51
2023-04-15T15:12:42.944Z,20.35
2023-04-15T15:15:27.988Z,19.60
2023-04-15T15:17:55.791Z,19.41
2023-04-15T15:20:24.644Z,19.16
2023-04-15T15:22:52.162Z,18.63
2023-04-15T15:25:19.960Z,18.18
2023-04-15T15:27:47.416Z,17.78
2023-04-15T15:30:15.013Z,17.54
2023-04-15T15:32:43.036Z,17.88
2023-04-15T15:35:12.962Z,17.59
2023-04-15T15:37:41.158Z,16.76
2023-04-15T15:40:10.622Z,15.80
2023-04-15T15:42:37.980Z,15.25
2023-04-15T15:45:06.212Z,14.91
2023-04-15T15:47:33.720Z,14.68
2023-04-15T15:50:02.717Z,14.54
2023-04-15T15:52:31.608Z,14.26
2023-04-15T15:54:59.253Z,14.57
2023-04-15T15:57:26.484Z,14.59
2023-04-15T16:00:04.800Z,14.21
2023-04-15T16:03:05.235Z,13.44
2023-04-15T16:05:27.228Z,12.43
2023-04-15T16:07:54.444Z,11.67
2023-04-15T16:10:21.992Z,11.04
2023-04-15T16:12:49.709Z,10.53
2023-04-15T16:15:17.290Z,10.01
2023-04-15T16:17:44.539Z,9.60
2023-04-15T16:20:12.056Z,9.37
2023-04-15T16:22:39.649Z,9.14
2023-04-15T16:25:09.978Z,8.98
2023-04-15T16:27:54.065Z,8.85
2023-04-15T16:30:24.767Z,8.81
2023-04-15T16:32:52.053Z,8.74
2023-04-15T16:35:20.178Z,8.63
2023-04-15T16:37:47.418Z,8.52
2023-04-15T16:40:15.471Z,8.56
2023-04-15T16:42:43.833Z,8.42
2023-04-15T16:45:11.797Z,8.58
2023-04-15T16:47:39.136Z,8.44
2023-04-15T16:50:07.410Z,8.38
2023-04-15T16:52:34.850Z,8.11
2023-04-15T16:55:02.577Z,8.02
2023-04-15T16:58:00.377Z,7.96
2023-04-15T17:00:17.644Z,7.84
2023-04-15T17:02:45.166Z,7.64
2023-04-15T17:05:13.041Z,7.74
2023-04-15T17:07:40.331Z,7.75
2023-04-15T17:10:09.571Z,7.79
2023-04-15T17:12:39.074Z,7.72
2023-04-15T17:15:09.059Z,7.70
2023-04-15T17:17:37.902Z,7.58
2023-04-15T17:20:06.253Z,7.52
2023-04-15T17:22:33.811Z,7.40
2023-04-15T17:25:01.525Z,7.39
2023-04-15T17:27:30.214Z,7.34
2023-04-15T17:29:57.967Z,7.22
2023-04-15T17:32:26.567Z,7.23
2023-04-15T17:34:54.160Z,7.21
2023-04-15T17:37:21.438Z,7.17
2023-04-15T17:39:49.050Z,7.14
2023-04-15T17:42:17.096Z,7.02
2023-04-15T17:44:45.825Z,6.96
2023-04-15T17:47:13.212Z,6.96
2023-04-15T17:49:41.262Z,6.93
2023-04-15T17:52:09.904Z,6.92
2023-04-15T17:54:37.732Z,6.88
2023-04-15T17:57:05.511Z,6.81
2023-04-15T17:59:34.321Z,6.91
2023-04-15T18:02:01.824Z,6.87
2023-04-15T18:04:29.995Z,6.82
2023-04-15T18:06:58.294Z,6.89
2023-04-15T18:09:26.030Z,7.00
2023-04-15T18:11:53.523Z,6.93
2023-04-15T18:14:33.698Z,6.83
2023-04-15T18:17:05.421Z,6.93
2023-04-15T18:19:33.132Z,6.86
2023-04-15T18:22:00.722Z,6.85
2023-04-15T18:24:30.697Z,6.89
2023-04-15T18:26:59.269Z,6.96
2023-04-15T18:29:27.476Z,6.96
2023-04-15T18:31:55.215Z,6.91
2023-04-15T18:34:23.342Z,6.95
2023-04-15T18:36:50.877Z,6.91
2023-04-15T18:39:19.523Z,6.90
2023-04-15T18:41:47.228Z,6.86
2023-04-15T18:44:15.594Z,6.87
2023-04-15T18:46:43.253Z,6.84
2023-04-15T18:49:12.658Z,6.84
2023-04-15T18:51:40.094Z,6.80
2023-04-15T18:54:07.922Z,6.80
2023-04-15T18:56:35.545Z,6.73
2023-04-15T18:59:28.187Z,6.72
2023-04-15T19:01:51.746Z,6.64
2023-04-15T19:04:19.811Z,6.56
2023-04-15T19:06:47.834Z,6.54
2023-04-15T19:09:16.428Z,6.51
2023-04-15T19:11:47.793Z,6.54
2023-04-15T19:14:15.692Z,6.38
2023-04-15T19:16:43.431Z,6.34
2023-04-15T19:19:14.734Z,6.36
2023-04-15T19:21:42.212Z,6.26
2023-04-15T19:24:10.376Z,6.21
2023-04-15T19:26:37.924Z,6.17
2023-04-15T19:29:05.883Z,6.18
2023-04-15T19:31:33.355Z,6.15
2023-04-15T19:34:01.003Z,6.10
2023-04-15T19:36:28.729Z,6.03
2023-04-15T19:38:56.685Z,5.99
2023-04-15T19:41:23.873Z,5.95
2023-04-15T19:43:51.528Z,5.93
2023-04-15T19:46:19.229Z,5.91
2023-04-15T19:48:46.983Z,5.80
2023-04-15T19:51:14.333Z,5.85
2023-04-15T19:53:42.142Z,5.83
2023-04-15T19:56:09.430Z,5.81
2023-04-15T19:58:37.632Z,5.69
2023-04-15T20:01:04.843Z,5.76
2023-04-15T20:03:32.841Z,5.86
2023-04-15T20:06:00.269Z,5.86
2023-04-15T20:08:27.943Z,5.87
2023-04-15T20:10:55.245Z,5.90
2023-04-15T20:13:22.822Z,5.87
2023-04-15T20:15:50.208Z,5.95
2023-04-15T20:18:17.867Z,5.90
2023-04-15T20:20:45.264Z,5.79
2023-04-15T20:23:12.863Z,5.69
2023-04-15T20:25:40.078Z,5.66
2023-04-15T20:28:10.613Z,5.64
2023-04-15T20:30:39.696Z,5.51
2023-04-15T20:33:08.224Z,5.44
2023-04-15T20:35:35.633Z,5.46
2023-04-15T20:38:04.614Z,5.45
2023-04-15T20:40:33.816Z,5.48
2023-04-15T20:43:01.467Z,5.46
2023-04-15T20:45:28.705Z,5.44
2023-04-15T20:47:56.421Z,5.32
2023-04-15T20:50:23.626Z,5.34
2023-04-15T20:52:51.342Z,5.27
2023-04-15T20:55:18.761Z,5.19
2023-04-15T20:57:48.709Z,5.13
2023-04-15T21:00:16.048Z,5.20
2023-04-15T21:02:43.781Z,5.19
2023-04-15T21:05:11.573Z,5.17
2023-04-15T21:07:39.136Z,5.10
2023-04-15T21:10:06.811Z,5.10
2023-04-15T21:12:34.394Z,5.04
2023-04-15T21:15:01.908Z,4.97
2023-04-15T21:17:29.622Z,4.77
2023-04-15T21:19:56.890Z,4.71
2023-04-15T21:22:24.469Z,4.52
2023-04-15T21:24:51.709Z,4.40
2023-04-15T21:27:19.267Z,4.33
2023-04-15T21:29:46.491Z,4.24
2023-04-15T21:32:14.087Z,4.27
2023-04-15T21:34:41.354Z,4.15
2023-04-15T21:37:08.952Z,4.15
2023-04-15T21:39:36.138Z,4.16
2023-04-15T21:42:03.794Z,4.01
2023-04-15T21:44:31.112Z,4.00
2023-04-15T21:46:58.748Z,3.78
2023-04-15T21:49:26.078Z,3.62
2023-04-15T21:51:53.543Z,3.51
2023-04-15T21:54:20.854Z,3.44
2023-04-15T21:56:49.897Z,3.33
2023-04-15T21:59:17.129Z,3.30
2023-04-15T22:01:44.751Z,3.33
2023-04-15T22:04:12.185Z,3.31
2023-04-15T22:06:39.798Z,3.23
2023-04-15T22:09:06.947Z,3.23
2023-04-15T22:11:34.500Z,3.20
2023-04-15T22:14:01.792Z,3.06
2023-04-15T22:16:29.634Z,2.99
2023-04-15T22:18:56.880Z,3.00
2023-04-15T22:21:24.477Z,2.99
2023-04-15T22:24:39.058Z,2.99
2023-04-15T22:26:44.453Z,2.95
2023-04-15T22:29:11.817Z,2.90
2023-04-15T22:31:39.299Z,2.92
2023-04-15T22:34:06.702Z,2.75
2023-04-15T22:36:34.340Z,2.67
2023-04-15T22:39:01.706Z,2.62
2023-04-15T22:41:29.221Z,2.55
2023-04-15T22:43:56.505Z,2.46
2023-04-15T22:46:24.084Z,2.48
2023-04-15T22:48:51.342Z,2.36
2023-04-15T22:51:23.139Z,2.45
2023-04-15T22:53:50.851Z,2.59
2023-04-15T22:56:20.925Z,2.59
2023-04-15T22:58:49.053Z,2.58
2023-04-15T23:01:17.965Z,2.56
2023-04-15T23:03:56.102Z,2.54
2023-04-15T23:06:27.416Z,2.44
2023-04-15T23:08:54.709Z,2.40
2023-04-15T23:11:22.320Z,2.38
2023-04-15T23:13:50.869Z,2.24
2023-04-15T23:16:18.511Z,2.15
2023-04-15T23:18:45.719Z,2.11
2023-04-15T23:21:13.335Z,2.17
2023-04-15T23:23:40.599Z,2.12
2023-04-15T23:26:08.083Z,2.12
2023-04-15T23:28:35.239Z,2.05
2023-04-15T23:31:02.840Z,1.96
2023-04-15T23:33:30.034Z,1.84
2023-04-15T23:35:57.595Z,1.88
2023-04-15T23:38:24.706Z,1.85
2023-04-15T23:40:52.484Z,1.86
2023-04-15T23:43:19.712Z,1.85
2023-04-15T23:45:47.189Z,1.78
2023-04-15T23:48:14.355Z,1.82
2023-04-15T23:50:43.441Z,1.89
2023-04-15T23:53:10.906Z,1.90
2023-04-15T23:55:38.411Z,1.78
2023-04-15T23:58:05.611Z,1.66
